sensor_id;sensor_type;location;lat;lon;timestamp;P1;durP1;ratioP1;P2;durP2;ratioP2
56746;SDS011;42623;49.978;9.966;2023-07-20T00:00:01;7.07;;;3.38;;
56746;SDS011;42623;49.978;9.966;2023-07-20T00:00:11;7.23;;;3.47;;
56746;SDS011;42623;49.978;9.966;2023-07-20T00:00:23;6.13;;;3.17;;
56746;SDS011;42623;49.978;9.966;2023-07-20T00:00:33;5.77;;;3.03;;
56746;SDS011;42623;49.978;9.966;2023-07-20T00:00:44;5.07;;;2.70;;
56746;SDS011;42623;49.978;9.966;2023-07-20T00:00:54;5.20;;;2.80;;
56746;SDS011;42623;49.978;9.966;2023-07-20T00:01:04;6.10;;;3.13;;
56746;SDS011;42623;49.978;9.966;2023-07-20T00:01:14;10.23;;;3.60;;
56746;SDS011;42623;49.978;9.966;2023-07-20T00:01:24;10.47;;;3.57;;
56746;SDS011;42623;49.978;9.966;2023-07-20T00:01:34;10.10;;;3.47;;
56746;SDS011;42623;49.978;9.966;2023-07-20T00:01:45;6.40;;;3.37;;
56746;SDS011;42623;49.978;9.966;2023-07-20T00:01:55;6.28;;;3.33;;
56746;SDS011;42623;49.978;9.966;2023-07-20T00:02:05;6.03;;;3.50;;
56746;SDS011;42623;49.978;9.966;2023-07-20T00:02:17;6.05;;;3.42;;
56746;SDS011;42623;49.978;9.966;2023-07-20T00:02:27;6.53;;;3.50;;
56746;SDS011;42623;49.978;9.966;2023-07-20T00:02:37;6.67;;;3.33;;
56746;SDS011;42623;49.978;9.966;2023-07-20T00:02:50;6.70;;;3.08;;
56746;SDS011;42623;49.978;9.966;2023-07-20T00:03:11;6.78;;;3.25;;
56746;SDS011;42623;49.978;9.966;2023-07-20T00:03:26;6.90;;;3.53;;
56746;SDS011;42623;49.978;9.966;2023-07-20T00:03:36;7.10;;;3.27;;
56746;SDS011;42623;49.978;9.966;2023-07-20T00:03:46;7.57;;;3.23;;
56746;SDS011;42623;49.978;9.966;2023-07-20T00:04:04;7.32;;;3.30;;
56746;SDS011;42623;49.978;9.966;2023-07-20T00:04:15;7.17;;;3.20;;
56746;SDS011;42623;49.978;9.966;2023-07-20T00:04:25;6.30;;;3.23;;
56746;SDS011;42623;49.978;9.966;2023-07-20T00:04:35;6.03;;;3.13;;
56746;SDS011;42623;49.978;9.966;2023-07-20T00:04:45;5.70;;;3.00;;
56746;SDS011;42623;49.978;9.966;2023-07-20T00:04:55;5.57;;;2.83;;
56746;SDS011;42623;49.978;9.966;2023-07-20T00:05:05;6.10;;;2.67;;
56746;SDS011;42623;49.978;9.966;2023-07-20T00:05:16;6.17;;;2.67;;
56746;SDS011;42623;49.978;9.966;2023-07-20T00:05:28;6.43;;;3.00;;
56746;SDS011;42623;49.978;9.966;2023-07-20T00:05:38;6.37;;;3.17;;
56746;SDS011;42623;49.978;9.966;2023-07-20T00:05:49;7.95;;;3.78;;
56746;SDS011;42623;49.978;9.966;2023-07-20T00:05:59;7.73;;;3.57;;
56746;SDS011;42623;49.978;9.966;2023-07-20T00:06:09;7.37;;;3.43;;
56746;SDS011;42623;49.978;9.966;2023-07-20T00:06:23;6.70;;;3.10;;
56746;SDS011;42623;49.978;9.966;2023-07-20T00:06:33;6.95;;;3.30;;
56746;SDS011;42623;49.978;9.966;2023-07-20T00:06:44;6.17;;;3.23;;
56746;SDS011;42623;49.978;9.966;2023-07-20T00:06:54;6.13;;;3.27;;
56746;SDS011;42623;49.978;9.966;2023-07-20T00:07:04;6.43;;;3.38;;
56746;SDS011;42623;49.978;9.966;2023-07-20T00:07:15;6.30;;;3.10;;
56746;SDS011;42623;49.978;9.966;2023-07-20T00:07:25;6.10;;;3.07;;
56746;SDS011;42623;49.978;9.966;2023-07-20T00:07:35;5.05;;;2.50;;
56746;SDS011;42623;49.978;9.966;2023-07-20T00:07:45;5.20;;;2.57;;
56746;SDS011;42623;49.978;9.966;2023-07-20T00:07:55;5.97;;;2.77;;
56746;SDS011;42623;49.978;9.966;2023-07-20T00:08:06;6.40;;;2.83;;
56746;SDS011;42623;49.978;9.966;2023-07-20T00:08:17;6.90;;;3.17;;
56746;SDS011;42623;49.978;9.966;2023-07-20T00:08:27;6.43;;;2.95;;
56746;SDS011;42623;49.978;9.966;2023-07-20T00:08:38;6.23;;;2.97;;
56746;SDS011;42623;49.978;9.966;2023-07-20T00:08:48;5.37;;;2.67;;
56746;SDS011;42623;49.978;9.966;2023-07-20T00:08:58;5.83;;;2.70;;
56746;SDS011;42623;49.978;9.966;2023-07-20T00:09:08;7.97;;;3.03;;
56746;SDS011;42623;49.978;9.966;2023-07-20T00:09:19;8.27;;;3.03;;
56746;SDS011;42623;49.978;9.966;2023-07-20T00:09:31;10.70;;;3.60;;
56746;SDS011;42623;49.978;9.966;2023-07-20T00:09:41;12.93;;;3.60;;
56746;SDS011;42623;49.978;9.966;2023-07-20T00:09:51;14.48;;;3.90;;
56746;SDS011;42623;49.978;9.966;2023-07-20T00:10:02;12.07;;;3.73;;
56746;SDS011;42623;49.978;9.966;2023-07-20T00:10:12;8.77;;;3.70;;
56746;SDS011;42623;49.978;9.966;2023-07-20T00:10:22;7.80;;;3.50;;
56746;SDS011;42623;49.978;9.966;2023-07-20T00:10:32;6.70;;;3.00;;
56746;SDS011;42623;49.978;9.966;2023-07-20T00:10:42;5.72;;;2.75;;
56746;SDS011;42623;49.978;9.966;2023-07-20T00:10:52;4.83;;;2.30;;
56746;SDS011;42623;49.978;9.966;2023-07-20T00:11:03;5.20;;;2.60;;
56746;SDS011;42623;49.978;9.966;2023-07-20T00:11:13;5.47;;;2.67;;
56746;SDS011;42623;49.978;9.966;2023-07-20T00:11:25;5.65;;;2.88;;
56746;SDS011;42623;49.978;9.966;2023-07-20T00:11:36;5.53;;;2.85;;
56746;SDS011;42623;49.978;9.966;2023-07-20T00:11:49;5.80;;;3.04;;
56746;SDS011;42623;49.978;9.966;2023-07-20T00:12:03;6.10;;;3.20;;
56746;SDS011;42623;49.978;9.966;2023-07-20T00:12:13;5.87;;;3.03;;
56746;SDS011;42623;49.978;9.966;2023-07-20T00:12:23;5.63;;;2.78;;
56746;SDS011;42623;49.978;9.966;2023-07-20T00:12:33;5.93;;;2.80;;
56746;SDS011;42623;49.978;9.966;2023-07-20T00:12:44;6.20;;;2.87;;
56746;SDS011;42623;49.978;9.966;2023-07-20T00:12:57;6.07;;;2.92;;
56746;SDS011;42623;49.978;9.966;2023-07-20T00:13:07;5.60;;;2.83;;
56746;SDS011;42623;49.978;9.966;2023-07-20T00:13:17;5.87;;;2.83;;
56746;SDS011;42623;49.978;9.966;2023-07-20T00:13:29;6.75;;;2.80;;
56746;SDS011;42623;49.978;9.966;2023-07-20T00:13:39;7.20;;;3.10;;
56746;SDS011;42623;49.978;9.966;2023-07-20T00:13:49;7.30;;;3.13;;
56746;SDS011;42623;49.978;9.966;2023-07-20T00:13:59;7.13;;;3.50;;
56746;SDS011;42623;49.978;9.966;2023-07-20T00:14:10;7.37;;;3.43;;
56746;SDS011;42623;49.978;9.966;2023-07-20T00:14:20;7.70;;;3.38;;
56746;SDS011;42623;49.978;9.966;2023-07-20T00:14:30;6.93;;;3.07;;
56746;SDS011;42623;49.978;9.966;2023-07-20T00:14:41;6.95;;;3.10;;
56746;SDS011;42623;49.978;9.966;2023-07-20T00:14:52;7.00;;;3.45;;
56746;SDS011;42623;49.978;9.966;2023-07-20T00:15:03;8.57;;;3.78;;
56746;SDS011;42623;49.978;9.966;2023-07-20T00:15:14;8.10;;;3.45;;
56746;SDS011;42623;49.978;9.966;2023-07-20T00:15:24;7.97;;;3.17;;
56746;SDS011;42623;49.978;9.966;2023-07-20T00:15:34;6.43;;;3.03;;
56746;SDS011;42623;49.978;9.966;2023-07-20T00:15:44;6.63;;;3.07;;
56746;SDS011;42623;49.978;9.966;2023-07-20T00:15:54;6.70;;;3.20;;
56746;SDS011;42623;49.978;9.966;2023-07-20T00:16:04;7.07;;;3.33;;
56746;SDS011;42623;49.978;9.966;2023-07-20T00:16:15;6.90;;;3.70;;
56746;SDS011;42623;49.978;9.966;2023-07-20T00:16:25;7.10;;;3.80;;
56746;SDS011;42623;49.978;9.966;2023-07-20T00:16:35;6.47;;;3.63;;
56746;SDS011;42623;49.978;9.966;2023-07-20T00:16:45;6.23;;;3.50;;
56746;SDS011;42623;49.978;9.966;2023-07-20T00:17:05;6.50;;;3.85;;
56746;SDS011;42623;49.978;9.966;2023-07-20T00:17:15;6.35;;;3.70;;
56746;SDS011;42623;49.978;9.966;2023-07-20T00:17:26;5.93;;;3.27;;
56746;SDS011;42623;49.978;9.966;2023-07-20T00:17:36;5.90;;;2.93;;
56746;SDS011;42623;49.978;9.966;2023-07-20T00:17:47;6.70;;;2.90;;
56746;SDS011;42623;49.978;9.966;2023-07-20T00:17:57;6.83;;;3.13;;
56746;SDS011;42623;49.978;9.966;2023-07-20T00:18:07;6.80;;;3.30;;
56746;SDS011;42623;49.978;9.966;2023-07-20T00:18:17;6.30;;;3.30;;
56746;SDS011;42623;49.978;9.966;2023-07-20T00:18:28;6.47;;;3.23;;
56746;SDS011;42623;49.978;9.966;2023-07-20T00:18:38;7.23;;;3.10;;
56746;SDS011;42623;49.978;9.966;2023-07-20T00:18:48;6.95;;;3.08;;
56746;SDS011;42623;49.978;9.966;2023-07-20T00:18:58;6.53;;;3.17;;
56746;SDS011;42623;49.978;9.966;2023-07-20T00:19:08;6.30;;;3.27;;
56746;SDS011;42623;49.978;9.966;2023-07-20T00:19:20;7.47;;;3.22;;
56746;SDS011;42623;49.978;9.966;2023-07-20T00:19:30;7.50;;;3.10;;
56746;SDS011;42623;49.978;9.966;2023-07-20T00:19:42;7.70;;;3.35;;
56746;SDS011;42623;49.978;9.966;2023-07-20T00:19:52;6.85;;;3.10;;
56746;SDS011;42623;49.978;9.966;2023-07-20T00:20:02;7.13;;;3.10;;
56746;SDS011;42623;49.978;9.966;2023-07-20T00:20:15;6.90;;;2.85;;
56746;SDS011;42623;49.978;9.966;2023-07-20T00:20:25;6.30;;;2.80;;
56746;SDS011;42623;49.978;9.966;2023-07-20T00:20:35;6.43;;;3.03;;
56746;SDS011;42623;49.978;9.966;2023-07-20T00:20:46;6.00;;;2.97;;
56746;SDS011;42623;49.978;9.966;2023-07-20T00:20:56;6.50;;;3.37;;
56746;SDS011;42623;49.978;9.966;2023-07-20T00:21:06;6.07;;;3.10;;
56746;SDS011;42623;49.978;9.966;2023-07-20T00:21:16;5.53;;;2.93;;
56746;SDS011;42623;49.978;9.966;2023-07-20T00:21:26;5.20;;;2.70;;
56746;SDS011;42623;49.978;9.966;2023-07-20T00:21:36;5.07;;;2.70;;
56746;SDS011;42623;49.978;9.966;2023-07-20T00:21:47;5.53;;;2.83;;
56746;SDS011;42623;49.978;9.966;2023-07-20T00:21:57;5.20;;;2.67;;
56746;SDS011;42623;49.978;9.966;2023-07-20T00:22:07;4.90;;;2.50;;
56746;SDS011;42623;49.978;9.966;2023-07-20T00:22:18;5.17;;;2.93;;
56746;SDS011;42623;49.978;9.966;2023-07-20T00:22:28;6.77;;;3.23;;
56746;SDS011;42623;49.978;9.966;2023-07-20T00:22:38;7.10;;;3.50;;
56746;SDS011;42623;49.978;9.966;2023-07-20T00:22:48;7.63;;;3.25;;
56746;SDS011;42623;49.978;9.966;2023-07-20T00:23:01;7.75;;;3.15;;
56746;SDS011;42623;49.978;9.966;2023-07-20T00:23:11;9.27;;;3.10;;
56746;SDS011;42623;49.978;9.966;2023-07-20T00:23:21;7.83;;;3.20;;
56746;SDS011;42623;49.978;9.966;2023-07-20T00:23:32;7.00;;;3.03;;
56746;SDS011;42623;49.978;9.966;2023-07-20T00:23:42;5.37;;;2.90;;
56746;SDS011;42623;49.978;9.966;2023-07-20T00:23:52;5.60;;;2.97;;
56746;SDS011;42623;49.978;9.966;2023-07-20T00:24:03;6.50;;;3.27;;
56746;SDS011;42623;49.978;9.966;2023-07-20T00:24:13;6.53;;;3.17;;
56746;SDS011;42623;49.978;9.966;2023-07-20T00:24:23;6.30;;;3.00;;
56746;SDS011;42623;49.978;9.966;2023-07-20T00:24:33;4.93;;;2.50;;
56746;SDS011;42623;49.978;9.966;2023-07-20T00:24:44;5.07;;;2.67;;
56746;SDS011;42623;49.978;9.966;2023-07-20T00:24:54;5.10;;;2.70;;
56746;SDS011;42623;49.978;9.966;2023-07-20T00:25:04;6.03;;;3.23;;
56746;SDS011;42623;49.978;9.966;2023-07-20T00:25:14;5.80;;;3.23;;
56746;SDS011;42623;49.978;9.966;2023-07-20T00:25:25;5.43;;;3.13;;
56746;SDS011;42623;49.978;9.966;2023-07-20T00:25:35;5.60;;;2.80;;
56746;SDS011;42623;49.978;9.966;2023-07-20T00:25:46;6.23;;;2.80;;
56746;SDS011;42623;49.978;9.966;2023-07-20T00:25:56;8.32;;;3.10;;
56746;SDS011;42623;49.978;9.966;2023-07-20T00:26:07;7.68;;;3.28;;
56746;SDS011;42623;49.978;9.966;2023-07-20T00:26:17;7.60;;;3.40;;
56746;SDS011;42623;49.978;9.966;2023-07-20T00:26:27;5.53;;;3.20;;
56746;SDS011;42623;49.978;9.966;2023-07-20T00:26:37;5.70;;;3.13;;
56746;SDS011;42623;49.978;9.966;2023-07-20T00:26:47;5.87;;;3.03;;
56746;SDS011;42623;49.978;9.966;2023-07-20T00:26:58;6.00;;;3.13;;
56746;SDS011;42623;49.978;9.966;2023-07-20T00:27:08;6.00;;;2.97;;
56746;SDS011;42623;49.978;9.966;2023-07-20T00:27:18;6.00;;;3.13;;
56746;SDS011;42623;49.978;9.966;2023-07-20T00:27:29;6.17;;;3.10;;
56746;SDS011;42623;49.978;9.966;2023-07-20T00:27:39;5.80;;;3.17;;
56746;SDS011;42623;49.978;9.966;2023-07-20T00:27:49;5.90;;;3.10;;
56746;SDS011;42623;49.978;9.966;2023-07-20T00:27:59;5.95;;;3.25;;
56746;SDS011;42623;49.978;9.966;2023-07-20T00:28:10;7.37;;;3.87;;
56746;SDS011;42623;49.978;9.966;2023-07-20T00:28:20;8.10;;;3.90;;
56746;SDS011;42623;49.978;9.966;2023-07-20T00:28:30;8.05;;;3.67;;
56746;SDS011;42623;49.978;9.966;2023-07-20T00:28:40;6.83;;;3.30;;
56746;SDS011;42623;49.978;9.966;2023-07-20T00:28:50;6.43;;;3.20;;
56746;SDS011;42623;49.978;9.966;2023-07-20T00:29:03;6.78;;;3.20;;
56746;SDS011;42623;49.978;9.966;2023-07-20T00:29:14;7.87;;;3.57;;
56746;SDS011;42623;49.978;9.966;2023-07-20T00:29:24;8.30;;;3.77;;
56746;SDS011;42623;49.978;9.966;2023-07-20T00:29:34;7.47;;;3.33;;
56746;SDS011;42623;49.978;9.966;2023-07-20T00:29:45;6.03;;;2.93;;
56746;SDS011;42623;49.978;9.966;2023-07-20T00:29:55;6.15;;;3.25;;
56746;SDS011;42623;49.978;9.966;2023-07-20T00:30:05;7.13;;;3.50;;
56746;SDS011;42623;49.978;9.966;2023-07-20T00:30:16;7.00;;;3.40;;
56746;SDS011;42623;49.978;9.966;2023-07-20T00:30:26;6.78;;;3.13;;
56746;SDS011;42623;49.978;9.966;2023-07-20T00:30:37;6.47;;;3.03;;
56746;SDS011;42623;49.978;9.966;2023-07-20T00:30:48;6.93;;;3.15;;
56746;SDS011;42623;49.978;9.966;2023-07-20T00:30:59;7.10;;;3.50;;
56746;SDS011;42623;49.978;9.966;2023-07-20T00:31:09;6.30;;;3.17;;
56746;SDS011;42623;49.978;9.966;2023-07-20T00:31:19;6.47;;;2.90;;
56746;SDS011;42623;49.978;9.966;2023-07-20T00:31:29;6.53;;;2.70;;
56746;SDS011;42623;49.978;9.966;2023-07-20T00:31:39;7.43;;;3.20;;
56746;SDS011;42623;49.978;9.966;2023-07-20T00:31:50;7.23;;;3.47;;
56746;SDS011;42623;49.978;9.966;2023-07-20T00:32:00;7.13;;;3.42;;
56746;SDS011;42623;49.978;9.966;2023-07-20T00:32:10;6.80;;;3.30;;
56746;SDS011;42623;49.978;9.966;2023-07-20T00:32:21;6.73;;;3.23;;
56746;SDS011;42623;49.978;9.966;2023-07-20T00:32:31;6.80;;;2.85;;
56746;SDS011;42623;49.978;9.966;2023-07-20T00:32:44;6.60;;;2.73;;
56746;SDS011;42623;49.978;9.966;2023-07-20T00:32:54;6.13;;;2.80;;
56746;SDS011;42623;49.978;9.966;2023-07-20T00:33:04;5.90;;;3.03;;
56746;SDS011;42623;49.978;9.966;2023-07-20T00:33:16;6.47;;;3.30;;
56746;SDS011;42623;49.978;9.966;2023-07-20T00:33:27;6.03;;;3.08;;
56746;SDS011;42623;49.978;9.966;2023-07-20T00:33:37;6.33;;;3.17;;
56746;SDS011;42623;49.978;9.966;2023-07-20T00:33:47;5.90;;;3.20;;
56746;SDS011;42623;49.978;9.966;2023-07-20T00:33:58;5.70;;;3.20;;
56746;SDS011;42623;49.978;9.966;2023-07-20T00:34:08;5.37;;;3.00;;
56746;SDS011;42623;49.978;9.966;2023-07-20T00:34:18;6.47;;;3.40;;
56746;SDS011;42623;49.978;9.966;2023-07-20T00:34:28;6.73;;;3.47;;
56746;SDS011;42623;49.978;9.966;2023-07-20T00:34:38;7.60;;;3.50;;
56746;SDS011;42623;49.978;9.966;2023-07-20T00:34:48;7.57;;;3.07;;
56746;SDS011;42623;49.978;9.966;2023-07-20T00:34:58;7.87;;;3.10;;
56746;SDS011;42623;49.978;9.966;2023-07-20T00:35:09;7.00;;;3.03;;
56746;SDS011;42623;49.978;9.966;2023-07-20T00:35:19;6.55;;;3.20;;
56746;SDS011;42623;49.978;9.966;2023-07-20T00:35:29;6.70;;;3.40;;
56746;SDS011;42623;49.978;9.966;2023-07-20T00:35:39;7.23;;;3.60;;
56746;SDS011;42623;49.978;9.966;2023-07-20T00:35:50;7.90;;;3.67;;
56746;SDS011;42623;49.978;9.966;2023-07-20T00:36:00;7.72;;;3.78;;
56746;SDS011;42623;49.978;9.966;2023-07-20T00:36:11;7.30;;;3.60;;
56746;SDS011;42623;49.978;9.966;2023-07-20T00:36:21;6.00;;;3.28;;
56746;SDS011;42623;49.978;9.966;2023-07-20T00:36:31;6.93;;;3.17;;
56746;SDS011;42623;49.978;9.966;2023-07-20T00:36:41;7.43;;;3.17;;
56746;SDS011;42623;49.978;9.966;2023-07-20T00:36:52;8.63;;;3.88;;
56746;SDS011;42623;49.978;9.966;2023-07-20T00:37:02;7.33;;;3.60;;
56746;SDS011;42623;49.978;9.966;2023-07-20T00:37:13;6.97;;;3.57;;
56746;SDS011;42623;49.978;9.966;2023-07-20T00:37:23;5.40;;;2.90;;
56746;SDS011;42623;49.978;9.966;2023-07-20T00:37:33;6.37;;;3.30;;
56746;SDS011;42623;49.978;9.966;2023-07-20T00:37:43;8.27;;;3.50;;
56746;SDS011;42623;49.978;9.966;2023-07-20T00:37:53;8.87;;;3.67;;
56746;SDS011;42623;49.978;9.966;2023-07-20T00:38:03;8.43;;;3.90;;
56746;SDS011;42623;49.978;9.966;2023-07-20T00:38:14;6.68;;;3.92;;
56746;SDS011;42623;49.978;9.966;2023-07-20T00:38:24;6.60;;;3.63;;
56746;SDS011;42623;49.978;9.966;2023-07-20T00:38:34;6.20;;;3.20;;
56746;SDS011;42623;49.978;9.966;2023-07-20T00:38:44;6.00;;;2.93;;
56746;SDS011;42623;49.978;9.966;2023-07-20T00:38:54;6.47;;;3.17;;
56746;SDS011;42623;49.978;9.966;2023-07-20T00:39:04;6.28;;;3.00;;
56746;SDS011;42623;49.978;9.966;2023-07-20T00:39:15;6.33;;;3.13;;
56746;SDS011;42623;49.978;9.966;2023-07-20T00:39:25;7.70;;;3.00;;
56746;SDS011;42623;49.978;9.966;2023-07-20T00:39:35;7.57;;;3.17;;
56746;SDS011;42623;49.978;9.966;2023-07-20T00:39:45;10.00;;;3.57;;
56746;SDS011;42623;49.978;9.966;2023-07-20T00:39:55;8.27;;;3.83;;
56746;SDS011;42623;49.978;9.966;2023-07-20T00:40:05;8.73;;;4.00;;
56746;SDS011;42623;49.978;9.966;2023-07-20T00:40:17;7.22;;;3.60;;
56746;SDS011;42623;49.978;9.966;2023-07-20T00:40:27;8.23;;;3.38;;
56746;SDS011;42623;49.978;9.966;2023-07-20T00:40:38;8.37;;;3.10;;
56746;SDS011;42623;49.978;9.966;2023-07-20T00:40:49;7.35;;;2.90;;
56746;SDS011;42623;49.978;9.966;2023-07-20T00:41:03;5.30;;;2.90;;
56746;SDS011;42623;49.978;9.966;2023-07-20T00:41:13;5.13;;;2.73;;
56746;SDS011;42623;49.978;9.966;2023-07-20T00:41:24;5.93;;;2.63;;
56746;SDS011;42623;49.978;9.966;2023-07-20T00:41:34;6.80;;;2.80;;
56746;SDS011;42623;49.978;9.966;2023-07-20T00:41:44;10.25;;;3.67;;
56746;SDS011;42623;49.978;9.966;2023-07-20T00:41:54;9.47;;;3.77;;
56746;SDS011;42623;49.978;9.966;2023-07-20T00:42:04;8.97;;;3.80;;
56746;SDS011;42623;49.978;9.966;2023-07-20T00:42:15;6.30;;;3.33;;
56746;SDS011;42623;49.978;9.966;2023-07-20T00:42:25;6.70;;;3.30;;
56746;SDS011;42623;49.978;9.966;2023-07-20T00:42:35;6.70;;;3.20;;
56746;SDS011;42623;49.978;9.966;2023-07-20T00:42:45;6.47;;;2.90;;
56746;SDS011;42623;49.978;9.966;2023-07-20T00:42:55;5.77;;;3.00;;
56746;SDS011;42623;49.978;9.966;2023-07-20T00:43:05;5.47;;;2.73;;
56746;SDS011;42623;49.978;9.966;2023-07-20T00:43:16;5.25;;;3.03;;
56746;SDS011;42623;49.978;9.966;2023-07-20T00:43:26;5.60;;;3.17;;
56746;SDS011;42623;49.978;9.966;2023-07-20T00:43:36;5.50;;;3.17;;
56746;SDS011;42623;49.978;9.966;2023-07-20T00:43:46;6.03;;;3.20;;
56746;SDS011;42623;49.978;9.966;2023-07-20T00:43:56;6.07;;;3.03;;
56746;SDS011;42623;49.978;9.966;2023-07-20T00:44:07;6.18;;;2.92;;
56746;SDS011;42623;49.978;9.966;2023-07-20T00:44:17;5.90;;;2.80;;
56746;SDS011;42623;49.978;9.966;2023-07-20T00:44:27;5.73;;;2.97;;
56746;SDS011;42623;49.978;9.966;2023-07-20T00:44:37;6.30;;;3.33;;
56746;SDS011;42623;49.978;9.966;2023-07-20T00:44:47;6.80;;;3.53;;
56746;SDS011;42623;49.978;9.966;2023-07-20T00:44:57;7.32;;;3.33;;
56746;SDS011;42623;49.978;9.966;2023-07-20T00:45:08;7.63;;;3.10;;
56746;SDS011;42623;49.978;9.966;2023-07-20T00:45:18;7.47;;;2.97;;
56746;SDS011;42623;49.978;9.966;2023-07-20T00:45:29;7.13;;;3.03;;
56746;SDS011;42623;49.978;9.966;2023-07-20T00:45:39;6.87;;;3.27;;
56746;SDS011;42623;49.978;9.966;2023-07-20T00:45:49;6.95;;;3.25;;
56746;SDS011;42623;49.978;9.966;2023-07-20T00:46:00;6.30;;;3.00;;
56746;SDS011;42623;49.978;9.966;2023-07-20T00:46:10;6.30;;;3.00;;
56746;SDS011;42623;49.978;9.966;2023-07-20T00:46:21;6.32;;;3.22;;
56746;SDS011;42623;49.978;9.966;2023-07-20T00:46:32;6.95;;;3.63;;
56746;SDS011;42623;49.978;9.966;2023-07-20T00:46:43;6.00;;;3.33;;
56746;SDS011;42623;49.978;9.966;2023-07-20T00:46:53;6.22;;;3.28;;
56746;SDS011;42623;49.978;9.966;2023-07-20T00:47:04;6.07;;;3.10;;
56746;SDS011;42623;49.978;9.966;2023-07-20T00:47:15;6.50;;;3.28;;
56746;SDS011;42623;49.978;9.966;2023-07-20T00:47:25;7.13;;;3.20;;
56746;SDS011;42623;49.978;9.966;2023-07-20T00:47:36;6.63;;;2.78;;
56746;SDS011;42623;49.978;9.966;2023-07-20T00:47:46;6.78;;;2.85;;
56746;SDS011;42623;49.978;9.966;2023-07-20T00:47:56;6.47;;;3.00;;
56746;SDS011;42623;49.978;9.966;2023-07-20T00:48:07;6.17;;;2.90;;
56746;SDS011;42623;49.978;9.966;2023-07-20T00:48:18;5.88;;;2.72;;
56746;SDS011;42623;49.978;9.966;2023-07-20T00:48:29;5.32;;;2.63;;
56746;SDS011;42623;49.978;9.966;2023-07-20T00:48:39;7.28;;;3.10;;
56746;SDS011;42623;49.978;9.966;2023-07-20T00:48:50;8.20;;;2.97;;
56746;SDS011;42623;49.978;9.966;2023-07-20T00:49:00;7.72;;;2.88;;
56746;SDS011;42623;49.978;9.966;2023-07-20T00:49:11;5.83;;;2.67;;
56746;SDS011;42623;49.978;9.966;2023-07-20T00:49:21;5.70;;;2.63;;
56746;SDS011;42623;49.978;9.966;2023-07-20T00:49:31;6.07;;;3.00;;
56746;SDS011;42623;49.978;9.966;2023-07-20T00:49:42;7.65;;;3.65;;
56746;SDS011;42623;49.978;9.966;2023-07-20T00:49:52;8.13;;;3.90;;
56746;SDS011;42623;49.978;9.966;2023-07-20T00:50:03;7.53;;;3.63;;
56746;SDS011;42623;49.978;9.966;2023-07-20T00:50:15;6.53;;;3.00;;
56746;SDS011;42623;49.978;9.966;2023-07-20T00:50:25;6.50;;;3.17;;
56746;SDS011;42623;49.978;9.966;2023-07-20T00:50:36;6.30;;;2.97;;
56746;SDS011;42623;49.978;9.966;2023-07-20T00:50:46;5.57;;;3.10;;
56746;SDS011;42623;49.978;9.966;2023-07-20T00:50:57;5.70;;;3.00;;
56746;SDS011;42623;49.978;9.966;2023-07-20T00:51:08;5.93;;;3.17;;
56746;SDS011;42623;49.978;9.966;2023-07-20T00:51:18;5.93;;;2.97;;
56746;SDS011;42623;49.978;9.966;2023-07-20T00:51:28;6.05;;;2.90;;
56746;SDS011;42623;49.978;9.966;2023-07-20T00:51:39;5.95;;;2.78;;
56746;SDS011;42623;49.978;9.966;2023-07-20T00:51:49;6.37;;;3.03;;
56746;SDS011;42623;49.978;9.966;2023-07-20T00:52:00;6.07;;;3.25;;
56746;SDS011;42623;49.978;9.966;2023-07-20T00:52:11;5.77;;;3.07;;
56746;SDS011;42623;49.978;9.966;2023-07-20T00:52:22;5.53;;;2.90;;
56746;SDS011;42623;49.978;9.966;2023-07-20T00:52:33;5.33;;;2.60;;
56746;SDS011;42623;49.978;9.966;2023-07-20T00:52:43;5.53;;;2.83;;
56746;SDS011;42623;49.978;9.966;2023-07-20T00:52:57;5.40;;;2.83;;
56746;SDS011;42623;49.978;9.966;2023-07-20T00:53:07;9.00;;;3.45;;
56746;SDS011;42623;49.978;9.966;2023-07-20T00:53:18;8.70;;;3.20;;
56746;SDS011;42623;49.978;9.966;2023-07-20T00:53:29;5.88;;;2.92;;
56746;SDS011;42623;49.978;9.966;2023-07-20T00:53:39;7.53;;;2.80;;
56746;SDS011;42623;49.978;9.966;2023-07-20T00:53:49;8.52;;;3.22;;
56746;SDS011;42623;49.978;9.966;2023-07-20T00:53:59;7.97;;;3.17;;
56746;SDS011;42623;49.978;9.966;2023-07-20T00:54:09;6.20;;;3.20;;
56746;SDS011;42623;49.978;9.966;2023-07-20T00:54:19;5.53;;;2.83;;
56746;SDS011;42623;49.978;9.966;2023-07-20T00:54:30;5.40;;;2.90;;
56746;SDS011;42623;49.978;9.966;2023-07-20T00:54:41;5.10;;;2.53;;
56746;SDS011;42623;49.978;9.966;2023-07-20T00:54:51;4.90;;;2.58;;
56746;SDS011;42623;49.978;9.966;2023-07-20T00:55:02;4.93;;;2.30;;
56746;SDS011;42623;49.978;9.966;2023-07-20T00:55:12;5.13;;;2.50;;
56746;SDS011;42623;49.978;9.966;2023-07-20T00:55:23;5.43;;;2.40;;
56746;SDS011;42623;49.978;9.966;2023-07-20T00:55:33;6.00;;;2.72;;
56746;SDS011;42623;49.978;9.966;2023-07-20T00:55:43;6.40;;;2.70;;
56746;SDS011;42623;49.978;9.966;2023-07-20T00:55:54;6.20;;;3.03;;
56746;SDS011;42623;49.978;9.966;2023-07-20T00:56:04;5.10;;;2.70;;
56746;SDS011;42623;49.978;9.966;2023-07-20T00:56:15;4.60;;;2.67;;
56746;SDS011;42623;49.978;9.966;2023-07-20T00:56:25;4.72;;;2.58;;
56746;SDS011;42623;49.978;9.966;2023-07-20T00:56:36;5.50;;;2.97;;
56746;SDS011;42623;49.978;9.966;2023-07-20T00:56:46;5.72;;;3.25;;
56746;SDS011;42623;49.978;9.966;2023-07-20T00:56:56;5.37;;;3.00;;
56746;SDS011;42623;49.978;9.966;2023-07-20T00:57:07;5.28;;;2.83;;
56746;SDS011;42623;49.978;9.966;2023-07-20T00:57:18;5.43;;;2.77;;
56746;SDS011;42623;49.978;9.966;2023-07-20T00:57:28;6.85;;;3.25;;
56746;SDS011;42623;49.978;9.966;2023-07-20T00:57:38;7.40;;;3.30;;
56746;SDS011;42623;49.978;9.966;2023-07-20T00:57:48;8.20;;;3.47;;
56746;SDS011;42623;49.978;9.966;2023-07-20T00:57:59;7.40;;;3.30;;
56746;SDS011;42623;49.978;9.966;2023-07-20T00:58:09;6.97;;;3.33;;
56746;SDS011;42623;49.978;9.966;2023-07-20T00:58:20;6.10;;;3.27;;
56746;SDS011;42623;49.978;9.966;2023-07-20T00:58:30;5.70;;;3.22;;
56746;SDS011;42623;49.978;9.966;2023-07-20T00:58:40;5.47;;;3.07;;
56746;SDS011;42623;49.978;9.966;2023-07-20T00:58:50;6.17;;;2.93;;
56746;SDS011;42623;49.978;9.966;2023-07-20T00:59:01;7.30;;;2.80;;
56746;SDS011;42623;49.978;9.966;2023-07-20T00:59:11;7.32;;;2.88;;
56746;SDS011;42623;49.978;9.966;2023-07-20T00:59:21;7.73;;;3.00;;
56746;SDS011;42623;49.978;9.966;2023-07-20T00:59:31;6.80;;;3.10;;
56746;SDS011;42623;49.978;9.966;2023-07-20T00:59:41;7.37;;;3.20;;
56746;SDS011;42623;49.978;9.966;2023-07-20T00:59:52;6.77;;;3.23;;
56746;SDS011;42623;49.978;9.966;2023-07-20T01:00:02;6.88;;;3.00;;
56746;SDS011;42623;49.978;9.966;2023-07-20T01:00:12;6.80;;;3.37;;
56746;SDS011;42623;49.978;9.966;2023-07-20T01:00:23;7.10;;;3.50;;
56746;SDS011;42623;49.978;9.966;2023-07-20T01:00:33;7.10;;;3.67;;
56746;SDS011;42623;49.978;9.966;2023-07-20T01:00:44;7.37;;;3.27;;
56746;SDS011;42623;49.978;9.966;2023-07-20T01:00:54;6.63;;;2.92;;
56746;SDS011;42623;49.978;9.966;2023-07-20T01:01:04;6.13;;;2.67;;
56746;SDS011;42623;49.978;9.966;2023-07-20T01:01:14;5.20;;;2.63;;
56746;SDS011;42623;49.978;9.966;2023-07-20T01:01:24;5.87;;;2.73;;
56746;SDS011;42623;49.978;9.966;2023-07-20T01:01:34;6.75;;;2.97;;
56746;SDS011;42623;49.978;9.966;2023-07-20T01:01:45;9.73;;;3.03;;
56746;SDS011;42623;49.978;9.966;2023-07-20T01:01:55;8.97;;;3.03;;
56746;SDS011;42623;49.978;9.966;2023-07-20T01:02:05;8.73;;;3.10;;
56746;SDS011;42623;49.978;9.966;2023-07-20T01:02:15;5.82;;;3.10;;
56746;SDS011;42623;49.978;9.966;2023-07-20T01:02:25;7.03;;;3.13;;
56746;SDS011;42623;49.978;9.966;2023-07-20T01:02:36;8.90;;;3.30;;
56746;SDS011;42623;49.978;9.966;2023-07-20T01:02:46;8.70;;;3.20;;
56746;SDS011;42623;49.978;9.966;2023-07-20T01:02:57;6.57;;;3.00;;
56746;SDS011;42623;49.978;9.966;2023-07-20T01:03:07;5.67;;;2.97;;
56746;SDS011;42623;49.978;9.966;2023-07-20T01:03:17;5.70;;;2.93;;
56746;SDS011;42623;49.978;9.966;2023-07-20T01:03:27;6.78;;;3.40;;